createdAt,value
2023-02-04T00:01:23.036Z,1.58
2023-02-04T00:03:52.260Z,1.52
2023-02-04T00:06:25.663Z,1.50
2023-02-04T00:08:56.848Z,1.92
2023-02-04T00:11:25.549Z,1.95
2023-02-04T00:13:53.917Z,1.70
2023-02-04T00:16:22.483Z,1.58
2023-02-04T00:18:50.851Z,1.35
2023-02-04T00:21:19.209Z,1.60
2023-02-04T00:23:56.468Z,1.52
2023-02-04T00:26:25.001Z,1.67
2023-02-04T00:28:53.380Z,1.33
2023-02-04T00:31:21.918Z,1.80
2023-02-04T00:33:50.397Z,1.33
2023-02-04T00:36:18.707Z,1.70
2023-02-04T00:38:47.027Z,1.35
2023-02-04T00:41:16.701Z,1.55
2023-02-04T00:43:45.045Z,1.55
2023-02-04T00:46:13.666Z,1.25
2023-02-04T00:48:42.091Z,1.73
2023-02-04T00:51:10.440Z,1.20
2023-02-04T00:53:38.760Z,1.10
2023-02-04T00:56:07.441Z,1.45
2023-02-04T00:58:37.116Z,1.77
2023-02-04T01:01:12.546Z,1.23
2023-02-04T01:03:40.881Z,1.52
2023-02-04T01:06:11.694Z,1.58
2023-02-04T01:08:40.052Z,1.50
2023-02-04T01:11:12.385Z,1.42
2023-02-04T01:13:42.091Z,1.20
2023-02-04T01:16:10.636Z,1.35
2023-02-04T01:18:39.790Z,1.42
2023-02-04T01:21:08.207Z,1.83
2023-02-04T01:23:36.633Z,1.17
2023-02-04T01:26:07.654Z,1.23
2023-02-04T01:28:35.962Z,1.10
2023-02-04T01:31:06.080Z,1.20
2023-02-04T01:33:34.499Z,1.02
2023-02-04T01:36:02.880Z,1.30
2023-02-04T01:38:31.198Z,1.08
2023-02-04T01:41:00.715Z,1.23
2023-02-04T01:43:29.071Z,0.98
2023-02-04T01:45:57.500Z,1.30
2023-02-04T01:48:29.627Z,1.38
2023-02-04T01:51:05.332Z,1.38
2023-02-04T01:53:33.724Z,1.30
2023-02-04T01:56:02.145Z,1.33
2023-02-04T01:58:30.906Z,1.20
2023-02-04T02:01:00.948Z,1.35
2023-02-04T02:03:33.798Z,0.93
2023-02-04T02:06:04.402Z,1.20
2023-02-04T02:08:34.913Z,0.95
2023-02-04T02:11:03.216Z,1.15
2023-02-04T02:13:31.758Z,1.30
2023-02-04T02:16:00.147Z,1.17
2023-02-04T02:18:32.356Z,1.05
2023-02-04T02:21:00.868Z,1.40
2023-02-04T02:23:50.486Z,1.20
2023-02-04T02:26:18.819Z,1.15
2023-02-04T02:28:47.721Z,1.30
2023-02-04T02:31:16.265Z,1.35
2023-02-04T02:33:44.659Z,1.08
2023-02-04T02:36:15.931Z,1.40
2023-02-04T02:38:45.710Z,1.23
2023-02-04T02:41:16.200Z,1.30
2023-02-04T02:43:44.582Z,0.95
2023-02-04T02:46:12.943Z,1.10
2023-02-04T02:48:41.253Z,0.85
2023-02-04T02:51:09.713Z,0.98
2023-02-04T02:53:38.027Z,1.30
2023-02-04T02:56:08.120Z,0.98
2023-02-04T02:58:40.545Z,1.52
2023-02-04T03:01:11.117Z,1.30
2023-02-04T03:03:40.695Z,1.30
2023-02-04T03:06:10.085Z,1.17
2023-02-04T03:08:38.529Z,1.05
2023-02-04T03:11:10.869Z,1.00
2023-02-04T03:13:39.215Z,1.05
2023-02-04T03:16:08.240Z,1.40
2023-02-04T03:18:36.648Z,1.17
2023-02-04T03:21:06.629Z,1.13
2023-02-04T03:23:35.000Z,1.05
2023-02-04T03:26:07.127Z,1.10
2023-02-04T03:28:43.327Z,0.95
2023-02-04T03:31:11.712Z,1.27
2023-02-04T03:33:40.094Z,1.33
2023-02-04T03:36:09.188Z,1.10
2023-02-04T03:38:37.545Z,1.20
2023-02-04T03:41:08.069Z,0.98
2023-02-04T03:43:37.733Z,1.55
2023-02-04T03:46:06.349Z,1.20
2023-02-04T03:48:34.688Z,1.30
2023-02-04T03:51:06.323Z,0.90
2023-02-04T03:53:34.666Z,0.98
2023-02-04T03:56:03.025Z,1.40
2023-02-04T03:58:31.347Z,1.10
2023-02-04T04:01:01.134Z,1.02
2023-02-04T04:03:29.596Z,1.17
2023-02-04T04:05:58.019Z,1.40
2023-02-04T04:08:26.412Z,1.20
2023-02-04T04:10:57.190Z,1.30
2023-02-04T04:13:25.548Z,1.10
2023-02-04T04:15:57.033Z,1.30
2023-02-04T04:18:26.711Z,1.10
2023-02-04T04:20:55.014Z,1.10
2023-02-04T04:23:23.386Z,1.20
2023-02-04T04:25:53.459Z,1.10
2023-02-04T04:28:21.750Z,1.30
2023-02-04T04:30:50.124Z,1.02
2023-02-04T04:33:18.545Z,1.08
2023-02-04T04:35:48.200Z,1.10
2023-02-04T04:38:16.511Z,1.40
2023-02-04T04:40:44.874Z,1.27
2023-02-04T04:43:13.232Z,1.08
2023-02-04T04:45:44.332Z,1.10
2023-02-04T04:48:16.371Z,1.40
2023-02-04T04:50:44.697Z,0.98
2023-02-04T04:53:14.360Z,1.10
2023-02-04T04:55:42.706Z,1.30
2023-02-04T04:58:11.008Z,1.23
2023-02-04T05:00:39.346Z,1.25
2023-02-04T05:03:07.696Z,1.40
2023-02-04T05:05:39.889Z,1.40
2023-02-04T05:08:10.896Z,1.35
2023-02-04T05:10:40.634Z,1.38
2023-02-04T05:13:08.977Z,1.08
2023-02-04T05:15:37.380Z,1.42
2023-02-04T05:18:05.821Z,1.27
2023-02-04T05:20:34.415Z,1.42
2023-02-04T05:23:05.375Z,1.48
2023-02-04T05:25:34.074Z,1.27
2023-02-04T05:28:03.795Z,1.48
2023-02-04T05:30:32.466Z,1.05
2023-02-04T05:33:00.981Z,1.30
2023-02-04T05:35:29.288Z,1.77
2023-02-04T05:37:57.596Z,1.00
2023-02-04T05:40:25.883Z,1.08
2023-02-04T05:42:54.244Z,1.55
2023-02-04T05:45:24.050Z,1.20
2023-02-04T05:47:52.362Z,1.45
2023-02-04T05:50:20.778Z,1.23
2023-02-04T05:52:49.112Z,1.17
2023-02-04T05:55:17.584Z,1.52
2023-02-04T05:57:45.878Z,1.17
2023-02-04T06:00:15.368Z,1.35
2023-02-04T06:02:45.076Z,1.35
2023-02-04T06:05:13.405Z,1.05
2023-02-04T06:07:41.692Z,1.08
2023-02-04T06:10:11.080Z,1.27
2023-02-04T06:12:39.366Z,1.27
2023-02-04T06:15:08.652Z,1.75
2023-02-04T06:17:37.077Z,1.30
2023-02-04T06:20:07.867Z,1.50
2023-02-04T06:22:36.286Z,1.27
2023-02-04T06:25:04.801Z,1.10
2023-02-04T06:27:33.168Z,1.15
2023-02-04T06:30:01.528Z,1.30
2023-02-04T06:32:33.296Z,1.23
2023-02-04T06:35:02.246Z,1.23
2023-02-04T06:37:32.692Z,1.25
2023-02-04T06:40:01.101Z,1.58
2023-02-04T06:42:29.603Z,1.35
2023-02-04T06:44:58.209Z,1.13
2023-02-04T06:47:26.679Z,1.42
2023-02-04T06:49:55.063Z,1.20
2023-02-04T06:52:23.355Z,1.30
2023-02-04T06:54:53.062Z,1.60
2023-02-04T06:57:21.416Z,1.42
2023-02-04T06:59:49.747Z,1.30
2023-02-04T07:02:18.146Z,1.30
2023-02-04T07:04:47.761Z,1.50
2023-02-04T07:07:16.232Z,1.17
2023-02-04T07:09:44.547Z,1.50
2023-02-04T07:12:16.198Z,1.15
2023-02-04T07:14:44.678Z,1.10
2023-02-04T07:17:16.027Z,1.30
2023-02-04T07:19:44.324Z,1.10
2023-02-04T07:22:12.708Z,1.13
2023-02-04T07:24:41.050Z,1.00
2023-02-04T07:27:09.462Z,1.17
2023-02-04T07:29:39.184Z,1.48
2023-02-04T07:32:07.563Z,1.10
2023-02-04T07:34:36.036Z,1.10
2023-02-04T07:37:04.448Z,0.90
2023-02-04T07:39:32.820Z,1.60
2023-02-04T07:42:01.151Z,1.10
2023-02-04T07:44:29.799Z,3.78
2023-02-04T07:47:00.680Z,4.07
2023-02-04T07:49:29.852Z,3.58
2023-02-04T07:51:58.213Z,4.50
2023-02-04T07:54:26.607Z,4.50
2023-02-04T07:56:54.904Z,4.95
2023-02-04T07:59:23.232Z,4.63
2023-02-04T08:01:51.631Z,4.68
2023-02-04T08:04:23.120Z,4.38
2023-02-04T08:06:51.472Z,4.20
2023-02-04T08:09:22.460Z,3.92
2023-02-04T08:11:50.809Z,3.72
2023-02-04T08:14:19.120Z,4.07
2023-02-04T08:16:47.461Z,3.67
2023-02-04T08:19:19.021Z,3.35
2023-02-04T08:21:48.860Z,3.88
2023-02-04T08:24:17.325Z,4.90
2023-02-04T08:26:45.728Z,3.97
2023-02-04T08:29:14.060Z,3.70
2023-02-04T08:31:42.506Z,3.47
2023-02-04T08:34:10.920Z,3.75
2023-02-04T08:36:39.270Z,4.57
2023-02-04T08:39:08.996Z,3.53
2023-02-04T08:41:37.285Z,3.80
2023-02-04T08:44:05.798Z,3.72
2023-02-04T08:46:34.211Z,3.22
2023-02-04T08:49:02.685Z,3.25
2023-02-04T08:51:30.991Z,3.03
2023-02-04T08:53:59.320Z,3.20
2023-02-04T08:56:29.041Z,3.55
2023-02-04T08:58:57.344Z,3.13
2023-02-04T09:01:25.780Z,3.00
2023-02-04T09:03:54.447Z,3.20
2023-02-04T09:06:22.833Z,3.08
2023-02-04T09:08:51.151Z,3.17
2023-02-04T09:11:19.537Z,3.20
2023-02-04T09:13:49.210Z,3.20
2023-02-04T09:16:18.599Z,2.53
2023-02-04T09:18:47.004Z,2.97
2023-02-04T09:21:17.812Z,2.70
2023-02-04T09:23:46.797Z,2.90
2023-02-04T09:26:15.766Z,2.45
2023-02-04T09:28:44.269Z,3.75
2023-02-04T09:31:14.105Z,2.67
2023-02-04T09:33:43.004Z,3.05
2023-02-04T09:36:11.401Z,2.33
2023-02-04T09:38:39.984Z,2.47
2023-02-04T09:41:09.313Z,2.70
2023-02-04T09:43:42.038Z,2.63
2023-02-04T09:46:11.352Z,2.40
2023-02-04T09:48:41.284Z,2.38
2023-02-04T09:51:09.735Z,2.65
2023-02-04T09:53:38.142Z,1.80
2023-02-04T09:56:07.261Z,2.78
2023-02-04T09:58:36.341Z,2.22
2023-02-04T10:01:10.365Z,2.70
2023-02-04T10:03:46.313Z,2.10
2023-02-04T10:06:16.898Z,2.78
2023-02-04T10:08:47.777Z,2.08
2023-02-04T10:11:16.551Z,1.98
2023-02-04T10:13:46.258Z,2.22
2023-02-04T10:16:15.944Z,1.65
2023-02-04T10:18:44.374Z,2.63
2023-02-04T10:21:17.494Z,1.73
2023-02-04T10:23:47.159Z,1.50
2023-02-04T10:26:15.965Z,1.80
2023-02-04T10:28:45.970Z,1.88
2023-02-04T10:31:30.971Z,1.80
2023-02-04T10:34:07.040Z,1.70
2023-02-04T10:36:36.692Z,2.05
2023-02-04T10:39:05.944Z,1.92
2023-02-04T10:41:40.922Z,1.75
2023-02-04T10:44:11.634Z,1.95
2023-02-04T10:46:40.020Z,2.03
2023-02-04T10:49:20.943Z,1.88
2023-02-04T10:51:52.785Z,1.33
2023-02-04T10:54:30.960Z,1.80
2023-02-04T10:57:00.880Z,2.05
2023-02-04T10:59:29.280Z,1.48
2023-02-04T11:01:58.127Z,2.22
2023-02-04T11:04:26.919Z,1.70
2023-02-04T11:06:56.647Z,1.60
2023-02-04T11:09:25.001Z,1.42
2023-02-04T11:11:53.357Z,1.70
2023-02-04T11:14:29.180Z,1.40
2023-02-04T11:17:00.837Z,1.63
2023-02-04T11:19:34.505Z,1.52
2023-02-04T11:22:08.767Z,1.52
2023-02-04T11:24:37.457Z,1.50
2023-02-04T11:27:18.933Z,1.23
2023-02-04T11:29:47.994Z,1.15
2023-02-04T11:32:33.459Z,1.33
2023-02-04T11:35:23.541Z,1.63
2023-02-04T11:37:55.012Z,1.10
2023-02-04T11:40:26.764Z,1.00
2023-02-04T11:43:02.582Z,1.20
2023-02-04T11:45:35.358Z,1.48
2023-02-04T11:48:04.925Z,1.30
2023-02-04T11:50:34.226Z,1.02
2023-02-04T11:53:04.002Z,1.75
2023-02-04T11:55:33.675Z,1.30
2023-02-04T11:58:02.248Z,1.10
2023-02-04T12:00:31.591Z,1.60
2023-02-04T12:03:06.482Z,1.40
2023-02-04T12:05:41.847Z,0.75
2023-02-04T12:08:24.732Z,1.05
2023-02-04T12:11:01.608Z,0.95
2023-02-04T12:13:30.890Z,1.02
2023-02-04T12:16:02.951Z,1.20
2023-02-04T12:18:31.509Z,1.10
2023-02-04T12:21:00.097Z,1.00
2023-02-04T12:23:30.446Z,0.93
2023-02-04T12:25:58.844Z,1.15
2023-02-04T12:28:27.908Z,0.90
2023-02-04T12:30:56.517Z,1.10
2023-02-04T12:33:24.932Z,0.95
2023-02-04T12:35:53.242Z,0.98
2023-02-04T12:38:21.654Z,0.90
2023-02-04T12:40:51.325Z,0.80
2023-02-04T12:43:19.661Z,1.05
2023-02-04T12:45:50.878Z,1.63
2023-02-04T12:48:22.315Z,0.52
2023-02-04T12:50:51.963Z,0.65
2023-02-04T12:53:20.412Z,0.80
2023-02-04T12:55:48.767Z,0.80
2023-02-04T12:58:21.291Z,0.77
2023-02-04T13:00:51.918Z,1.10
2023-02-04T13:03:20.266Z,0.90
2023-02-04T13:05:48.570Z,0.85
2023-02-04T13:08:20.110Z,0.90
2023-02-04T13:10:51.789Z,1.08
2023-02-04T13:13:21.794Z,1.10
2023-02-04T13:15:50.199Z,0.70
2023-02-04T13:18:20.946Z,1.27
2023-02-04T13:20:49.474Z,0.70
2023-02-04T13:23:17.804Z,0.82
2023-02-04T13:25:46.166Z,0.70
2023-02-04T13:28:14.802Z,0.50
2023-02-04T13:30:44.567Z,0.60
2023-02-04T13:33:20.095Z,0.80
2023-02-04T13:35:48.427Z,0.73
2023-02-04T13:38:16.807Z,0.77
2023-02-04T13:40:45.137Z,0.65
2023-02-04T13:43:13.523Z,1.05
2023-02-04T13:45:47.723Z,0.60
2023-02-04T13:48:20.242Z,0.65
2023-02-04T13:50:49.068Z,1.33
2023-02-04T13:53:17.433Z,0.63
2023-02-04T13:55:45.796Z,0.77
2023-02-04T13:58:14.216Z,0.90
2023-02-04T14:00:42.834Z,1.00
2023-02-04T14:03:14.347Z,0.90
2023-02-04T14:05:44.059Z,0.73
2023-02-04T14:08:14.916Z,0.65
2023-02-04T14:10:43.233Z,0.70
2023-02-04T14:13:11.828Z,0.82
2023-02-04T14:15:41.538Z,0.82
2023-02-04T14:18:09.872Z,0.90
2023-02-04T14:20:38.496Z,0.90
2023-02-04T14:23:08.236Z,1.00
2023-02-04T14:25:36.546Z,1.02
2023-02-04T14:28:05.116Z,1.00
2023-02-04T14:30:38.832Z,0.90
2023-02-04T14:33:08.890Z,0.68
2023-02-04T14:35:37.944Z,0.98
2023-02-04T14:38:06.347Z,0.80
2023-02-04T14:40:38.866Z,1.33
2023-02-04T14:43:07.443Z,0.88
2023-02-04T14:45:35.811Z,0.85
2023-02-04T14:48:04.235Z,0.60
2023-02-04T14:50:32.844Z,0.90
2023-02-04T14:53:01.288Z,0.65
2023-02-04T14:55:29.597Z,0.82
2023-02-04T14:57:59.283Z,0.90
2023-02-04T15:00:27.613Z,0.70
2023-02-04T15:02:55.991Z,0.65
2023-02-04T15:05:24.307Z,0.85
2023-02-04T15:08:01.859Z,0.60
2023-02-04T15:10:30.559Z,0.55
2023-02-04T15:13:00.698Z,0.77
2023-02-04T15:15:29.023Z,0.68
2023-02-04T15:17:57.379Z,0.90
2023-02-04T15:20:25.893Z,0.47
2023-02-04T15:22:56.462Z,0.70
2023-02-04T15:25:26.513Z,0.77
2023-02-04T15:27:54.889Z,0.47
2023-02-04T15:30:24.666Z,0.70
2023-02-04T15:32:53.083Z,0.50
2023-02-04T15:35:21.944Z,0.75
2023-02-04T15:37:50.313Z,0.90
2023-02-04T15:40:19.154Z,0.77
2023-02-04T15:42:47.514Z,0.98
2023-02-04T15:45:26.290Z,0.80
2023-02-04T15:47:54.714Z,0.63
2023-02-04T15:50:23.053Z,0.75
2023-02-04T15:52:54.092Z,0.80
2023-02-04T15:55:22.458Z,0.55
2023-02-04T15:57:59.888Z,0.50
2023-02-04T16:00:29.561Z,0.60
2023-02-04T16:03:00.810Z,0.55
2023-02-04T16:05:29.164Z,0.88
2023-02-04T16:07:57.587Z,0.68
2023-02-04T16:10:25.922Z,0.57
2023-02-04T16:12:56.747Z,0.47
2023-02-04T16:15:25.296Z,0.55
2023-02-04T16:17:57.008Z,0.80
2023-02-04T16:20:25.374Z,0.63
2023-02-04T16:22:53.692Z,0.90
2023-02-04T16:25:22.760Z,0.70
2023-02-04T16:27:51.185Z,0.52
2023-02-04T16:30:19.652Z,0.80
2023-02-04T16:32:48.529Z,0.80
2023-02-04T16:35:29.768Z,0.80
2023-02-04T16:37:58.879Z,0.65
2023-02-04T16:40:27.278Z,0.50
2023-02-04T16:42:58.257Z,0.60
2023-02-04T16:45:26.668Z,0.60
2023-02-04T16:47:55.065Z,0.57
2023-02-04T16:50:25.132Z,0.63
2023-02-04T16:52:53.593Z,0.60
2023-02-04T16:55:25.664Z,0.50
2023-02-04T16:57:55.401Z,0.75
2023-02-04T17:00:24.185Z,0.57
2023-02-04T17:02:52.577Z,0.50
2023-02-04T17:05:23.278Z,0.45
2023-02-04T17:07:54.675Z,0.60
2023-02-04T17:10:43.838Z,0.70
2023-02-04T17:13:12.292Z,0.50
2023-02-04T17:15:40.603Z,0.60
2023-02-04T17:18:09.328Z,0.50
2023-02-04T17:20:37.766Z,0.57
2023-02-04T17:23:07.568Z,0.60
2023-02-04T17:25:36.000Z,0.60
2023-02-04T17:28:05.919Z,0.40
2023-02-04T17:30:34.439Z,0.50
2023-02-04T17:33:06.786Z,0.60
2023-02-04T17:35:38.089Z,0.63
2023-02-04T17:38:13.908Z,0.60
2023-02-04T17:40:43.098Z,0.65
2023-02-04T17:43:11.643Z,0.60
2023-02-04T17:45:40.198Z,0.50
2023-02-04T17:48:08.733Z,0.50
2023-02-04T17:50:39.925Z,0.40
2023-02-04T17:53:17.824Z,0.60
2023-02-04T17:55:46.390Z,0.60
2023-02-04T17:58:19.009Z,0.60
2023-02-04T18:00:48.057Z,0.50
2023-02-04T18:03:19.788Z,0.52
2023-02-04T18:05:57.229Z,0.50
2023-02-04T18:08:31.716Z,0.38
2023-02-04T18:11:05.507Z,0.55
2023-02-04T18:13:34.462Z,0.70
2023-02-04T18:16:05.239Z,0.60
2023-02-04T18:18:35.898Z,0.50
2023-02-04T18:21:19.555Z,0.60
2023-02-04T18:23:49.686Z,0.68
2023-02-04T18:26:19.115Z,0.70
2023-02-04T18:28:49.411Z,0.60
2023-02-04T18:31:25.896Z,0.65
2023-02-04T18:33:54.524Z,0.50
2023-02-04T18:36:23.395Z,0.80
2023-02-04T18:38:53.179Z,0.70
2023-02-04T18:41:35.805Z,0.75
2023-02-04T18:44:18.394Z,0.90
2023-02-04T18:46:49.750Z,1.10
2023-02-04T18:49:26.341Z,1.27
2023-02-04T18:51:54.938Z,1.00
2023-02-04T18:54:35.516Z,1.20
2023-02-04T18:57:33.008Z,1.17
2023-02-04T19:00:23.225Z,1.17
2023-02-04T19:02:53.644Z,1.15
2023-02-04T19:05:29.940Z,1.27
2023-02-04T19:08:07.940Z,1.23
2023-02-04T19:10:40.310Z,1.27
2023-02-04T19:13:16.042Z,1.30
2023-02-04T19:15:48.273Z,1.33
2023-02-04T19:18:23.359Z,1.10
2023-02-04T19:20:51.743Z,1.20
2023-02-04T19:23:20.901Z,1.08
2023-02-04T19:25:54.563Z,1.20
2023-02-04T19:28:32.672Z,1.25
2023-02-04T19:31:02.106Z,1.55
2023-02-04T19:33:33.920Z,1.20
2023-02-04T19:36:28.729Z,1.45
2023-02-04T19:38:58.607Z,1.38
2023-02-04T19:41:35.146Z,1.63
2023-02-04T19:44:35.446Z,1.52
2023-02-04T19:47:24.901Z,1.95
2023-02-04T19:49:57.842Z,1.90
2023-02-04T19:52:33.785Z,1.90
2023-02-04T19:55:30.077Z,1.75
2023-02-04T19:58:04.954Z,1.75
2023-02-04T20:01:00.682Z,1.65
2023-02-04T20:03:34.267Z,1.73
2023-02-04T20:06:11.076Z,1.95
2023-02-04T20:08:46.333Z,1.60
2023-02-04T20:11:49.443Z,1.50
2023-02-04T20:14:44.170Z,1.20
2023-02-04T20:17:34.707Z,1.30
2023-02-04T20:20:17.892Z,1.50
2023-02-04T20:22:47.953Z,1.50
2023-02-04T20:25:40.956Z,1.17
2023-02-04T20:28:19.944Z,1.30
2023-02-04T20:30:50.807Z,1.40
2023-02-04T20:33:28.717Z,1.23
2023-02-04T20:36:31.499Z,1.65
2023-02-04T20:39:07.972Z,1.35
2023-02-04T20:41:37.686Z,1.45
2023-02-04T20:44:12.947Z,1.17
2023-02-04T20:46:42.663Z,1.08
2023-02-04T20:49:19.444Z,1.27
2023-02-04T20:51:48.174Z,1.27
2023-02-04T20:54:19.707Z,0.90
2023-02-04T20:56:48.091Z,0.90
2023-02-04T20:59:25.117Z,1.25
2023-02-04T21:01:56.059Z,0.93
2023-02-04T21:04:26.075Z,0.95
2023-02-04T21:06:55.609Z,1.17
2023-02-04T21:09:26.249Z,0.90
2023-02-04T21:11:54.872Z,1.10
2023-02-04T21:14:23.480Z,1.05
2023-02-04T21:16:52.586Z,1.00
2023-02-04T21:19:22.396Z,1.05
2023-02-04T21:21:50.704Z,1.13
2023-02-04T21:24:19.263Z,1.25
2023-02-04T21:26:47.661Z,1.10
2023-02-04T21:29:16.044Z,0.70
2023-02-04T21:31:46.565Z,1.05
2023-02-04T21:34:15.827Z,1.13
2023-02-04T21:36:45.826Z,1.15
2023-02-04T21:39:14.146Z,0.75
2023-02-04T21:41:42.544Z,1.35
2023-02-04T21:44:11.031Z,1.05
2023-02-04T21:46:39.435Z,0.90
2023-02-04T21:49:08.096Z,0.82
2023-02-04T21:51:36.467Z,1.10
2023-02-04T21:54:06.705Z,0.80
2023-02-04T21:56:35.014Z,0.82
2023-02-04T21:59:04.608Z,1.00
2023-02-04T22:01:32.971Z,1.13
2023-02-04T22:04:01.410Z,1.05
2023-02-04T22:06:29.743Z,1.05
2023-02-04T22:08:58.205Z,1.20
2023-02-04T22:11:28.538Z,1.27
2023-02-04T22:13:57.096Z,1.02
2023-02-04T22:16:25.511Z,1.20
2023-02-04T22:18:56.082Z,0.90
2023-02-04T22:21:26.121Z,0.82
2023-02-04T22:23:55.826Z,1.10
2023-02-04T22:26:28.745Z,1.27
2023-02-04T22:29:00.152Z,1.05
2023-02-04T22:31:28.640Z,1.10
2023-02-04T22:33:57.124Z,1.10
2023-02-04T22:36:25.424Z,1.50
2023-02-04T22:38:53.720Z,1.40
2023-02-04T22:41:22.100Z,1.40
2023-02-04T22:43:50.468Z,1.55
2023-02-04T22:46:20.151Z,1.63
2023-02-04T22:48:48.536Z,1.77
2023-02-04T22:51:16.967Z,1.23
2023-02-04T22:53:48.454Z,1.50
2023-02-04T22:56:16.782Z,1.70
2023-02-04T22:58:45.404Z,1.33
2023-02-04T23:01:13.802Z,1.38
2023-02-04T23:03:43.544Z,1.58
2023-02-04T23:06:11.865Z,1.33
2023-02-04T23:08:40.324Z,1.50
2023-02-04T23:11:09.411Z,1.55
2023-02-04T23:13:37.770Z,1.27
2023-02-04T23:16:06.783Z,1.38
2023-02-04T23:18:35.147Z,1.40
2023-02-04T23:21:05.806Z,1.48
2023-02-04T23:23:34.156Z,1.10
2023-02-04T23:26:03.351Z,1.23
2023-02-04T23:28:32.064Z,1.42
2023-02-04T23:31:00.407Z,1.30
2023-02-04T23:33:28.772Z,1.40
2023-02-04T23:35:57.109Z,2.47
2023-02-04T23:38:26.779Z,1.20
2023-02-04T23:40:57.104Z,1.40
2023-02-04T23:43:25.557Z,1.27
2023-02-04T23:45:56.528Z,1.40
2023-02-04T23:48:24.967Z,1.17
2023-02-04T23:50:56.791Z,1.30
2023-02-04T23:53:26.568Z,1.30
2023-02-04T23:55:54.906Z,1.25
2023-02-04T23:58:23.261Z,1.13
